createdAt,value
2018-12-14T00:02:08.980Z,98359.38
2018-12-14T00:04:36.433Z,98355.27
2018-12-14T00:07:03.905Z,98355.32
2018-12-14T00:09:31.467Z,98359.06
2018-12-14T00:11:58.934Z,98366.17
2018-12-14T00:14:26.386Z,98362.70
2018-12-14T00:16:53.862Z,98365.39
2018-12-14T00:19:21.302Z,98368.92
2018-12-14T00:21:48.775Z,98355.08
2018-12-14T00:24:16.230Z,98364.20
2018-12-14T00:26:43.670Z,98365.50
2018-12-14T00:29:11.133Z,98369.45
2018-12-14T00:31:38.582Z,98364.41
2018-12-14T00:34:06.047Z,98368.41
2018-12-14T00:36:33.503Z,98356.72
2018-12-14T00:39:00.962Z,98366.92
2018-12-14T00:41:28.453Z,98368.95
2018-12-14T00:43:56.010Z,98365.98
2018-12-14T00:46:23.444Z,98362.39
2018-12-14T00:48:50.896Z,98364.28
2018-12-14T00:51:18.347Z,98360.02
2018-12-14T00:53:45.816Z,98363.46
2018-12-14T00:56:13.250Z,98361.81
2018-12-14T00:58:40.709Z,98368.70
2018-12-14T01:01:08.158Z,98370.58
2018-12-14T01:03:35.618Z,98369.06
2018-12-14T01:06:03.060Z,98367.80
2018-12-14T01:08:30.511Z,98362.61
2018-12-14T01:10:57.968Z,98369.05
2018-12-14T01:13:25.405Z,98372.06
2018-12-14T01:15:52.939Z,98374.66
2018-12-14T01:18:20.433Z,98369.29
2018-12-14T01:20:47.899Z,98369.41
2018-12-14T01:23:15.347Z,98379.28
2018-12-14T01:25:42.817Z,98377.36
2018-12-14T01:28:10.265Z,98380.81
2018-12-14T01:30:37.729Z,98382.15
2018-12-14T01:33:05.181Z,98379.45
2018-12-14T01:35:32.745Z,98376.95
2018-12-14T01:38:00.195Z,98373.58
2018-12-14T01:40:27.656Z,98381.81
2018-12-14T01:42:55.109Z,98374.30
2018-12-14T01:45:22.567Z,98379.69
2018-12-14T01:47:50.004Z,98376.36
2018-12-14T01:50:17.461Z,98372.58
2018-12-14T01:52:44.997Z,98373.58
2018-12-14T01:55:12.558Z,98368.21
2018-12-14T01:57:40.303Z,98376.72
2018-12-14T02:00:07.842Z,98379.20
2018-12-14T02:02:35.309Z,98379.77
2018-12-14T02:05:02.753Z,98377.69
2018-12-14T02:07:30.210Z,98381.83
2018-12-14T02:09:57.649Z,98379.09
2018-12-14T02:12:25.105Z,98374.54
2018-12-14T02:14:52.553Z,98371.52
2018-12-14T02:17:21.720Z,98382.41
2018-12-14T02:19:49.273Z,98379.73
2018-12-14T02:22:16.731Z,98379.53
2018-12-14T02:24:44.182Z,98386.14
2018-12-14T02:27:11.645Z,98374.03
2018-12-14T02:29:39.088Z,98372.14
2018-12-14T02:32:06.631Z,98373.80
2018-12-14T02:34:34.080Z,98369.89
2018-12-14T02:37:01.540Z,98359.53
2018-12-14T02:39:28.992Z,98361.77
2018-12-14T02:41:56.450Z,98366.49
2018-12-14T02:44:23.897Z,98360.44
2018-12-14T02:46:51.344Z,98355.34
2018-12-14T02:49:18.840Z,98352.52
2018-12-14T02:51:46.449Z,98351.60
2018-12-14T02:54:13.981Z,98346.47
2018-12-14T02:56:41.429Z,98354.39
2018-12-14T02:59:08.885Z,98351.27
2018-12-14T03:01:36.333Z,98346.81
2018-12-14T03:04:03.792Z,98348.60
2018-12-14T03:06:31.246Z,98348.13
2018-12-14T03:08:58.711Z,98349.43
2018-12-14T03:11:26.150Z,98353.48
2018-12-14T03:13:53.778Z,98348.06
2018-12-14T03:16:21.270Z,98353.09
2018-12-14T03:18:48.730Z,98358.38
2018-12-14T03:21:16.285Z,98353.56
2018-12-14T03:23:43.759Z,98349.77
2018-12-14T03:26:11.465Z,98355.17
2018-12-14T03:28:38.921Z,98344.41
2018-12-14T03:31:06.355Z,98353.41
2018-12-14T03:33:33.839Z,98345.88
2018-12-14T03:36:01.361Z,98351.86
2018-12-14T03:38:28.818Z,98350.47
2018-12-14T03:40:56.254Z,98354.52
2018-12-14T03:43:23.685Z,98357.75
2018-12-14T03:45:51.143Z,98357.91
2018-12-14T03:48:18.590Z,98356.28
2018-12-14T03:50:46.049Z,98350.13
2018-12-14T03:53:14.168Z,98348.89
2018-12-14T03:55:41.629Z,98353.73
2018-12-14T03:58:09.076Z,98351.01
2018-12-14T04:00:37.025Z,98353.16
2018-12-14T04:03:04.572Z,98350.72
2018-12-14T04:05:32.542Z,98357.37
2018-12-14T04:07:59.982Z,98351.42
2018-12-14T04:10:27.446Z,98353.53
2018-12-14T04:12:54.901Z,98352.25
2018-12-14T04:15:22.373Z,98353.49
2018-12-14T04:17:49.824Z,98363.15
2018-12-14T04:20:17.286Z,98363.23
2018-12-14T04:22:44.733Z,98366.35
2018-12-14T04:25:12.199Z,98358.45
2018-12-14T04:27:39.758Z,98364.11
2018-12-14T04:30:07.277Z,98363.37
2018-12-14T04:32:34.733Z,98360.33
2018-12-14T04:35:02.171Z,98364.87
2018-12-14T04:37:29.673Z,98370.91
2018-12-14T04:39:57.122Z,98371.25
2018-12-14T04:42:25.053Z,98366.88
2018-12-14T04:44:52.494Z,98363.71
2018-12-14T04:47:20.333Z,98371.22
2018-12-14T04:49:47.773Z,98375.23
2018-12-14T04:52:15.235Z,98374.28
2018-12-14T04:54:42.679Z,98372.22
2018-12-14T04:57:10.137Z,98380.55
2018-12-14T04:59:37.688Z,98377.16
2018-12-14T05:02:05.158Z,98381.13
2018-12-14T05:04:32.612Z,98379.05
2018-12-14T05:07:00.152Z,98376.38
2018-12-14T05:09:27.594Z,98379.23
2018-12-14T05:11:55.055Z,98377.44
2018-12-14T05:14:23.298Z,98377.33
2018-12-14T05:16:50.738Z,98377.20
2018-12-14T05:19:18.203Z,98378.23
2018-12-14T05:21:45.931Z,98383.87
2018-12-14T05:24:13.387Z,98394.31
2018-12-14T05:26:40.848Z,98390.88
2018-12-14T05:29:08.314Z,98390.00
2018-12-14T05:31:35.766Z,98391.91
2018-12-14T05:34:03.225Z,98396.20
2018-12-14T05:36:30.679Z,98399.63
2018-12-14T05:38:58.154Z,98396.84
2018-12-14T05:41:26.001Z,98396.91
2018-12-14T05:43:53.456Z,98408.31
2018-12-14T05:46:20.901Z,98403.30
2018-12-14T05:48:48.357Z,98416.94
2018-12-14T05:51:15.799Z,98418.96
2018-12-14T05:53:43.260Z,98414.53
2018-12-14T05:56:10.767Z,98417.58
2018-12-14T05:58:38.280Z,98422.65
2018-12-14T06:01:05.738Z,98422.12
2018-12-14T06:03:33.198Z,98421.53
2018-12-14T06:06:00.650Z,98418.81
2018-12-14T06:08:28.685Z,98420.41
2018-12-14T06:10:56.162Z,98422.12
2018-12-14T06:13:23.621Z,98429.49
2018-12-14T06:15:51.081Z,98426.14
2018-12-14T06:18:18.525Z,98424.64
2018-12-14T06:20:46.011Z,98420.08
2018-12-14T06:23:13.487Z,98432.36
2018-12-14T06:25:40.953Z,98431.52
2018-12-14T06:28:08.404Z,98430.81
2018-12-14T06:30:35.881Z,98428.55
2018-12-14T06:33:03.330Z,98424.93
2018-12-14T06:35:30.780Z,98430.20
2018-12-14T06:37:58.222Z,98433.81
2018-12-14T06:40:25.688Z,98433.17
2018-12-14T06:42:53.158Z,98439.98
2018-12-14T06:45:20.628Z,98442.20
2018-12-14T06:47:48.065Z,98448.83
2018-12-14T06:50:15.521Z,98445.17
2018-12-14T06:52:42.991Z,98458.91
2018-12-14T06:55:10.439Z,98460.34
2018-12-14T06:57:37.902Z,98454.78
2018-12-14T07:00:07.031Z,98459.59
2018-12-14T07:02:34.884Z,98461.05
2018-12-14T07:05:02.331Z,98464.46
2018-12-14T07:07:29.790Z,98464.17
2018-12-14T07:09:57.241Z,98464.03
2018-12-14T07:12:24.726Z,98466.78
2018-12-14T07:14:52.185Z,98472.92
2018-12-14T07:17:19.664Z,98466.66
2018-12-14T07:19:47.106Z,98474.09
2018-12-14T07:22:14.574Z,98470.00
2018-12-14T07:24:42.028Z,98474.52
2018-12-14T07:27:09.504Z,98483.02
2018-12-14T07:29:37.113Z,98477.07
2018-12-14T07:32:04.561Z,98481.16
2018-12-14T07:34:32.005Z,98491.83
2018-12-14T07:36:59.463Z,98492.11
2018-12-14T07:39:26.897Z,98497.13
2018-12-14T07:41:54.357Z,98502.95
2018-12-14T07:44:21.867Z,98500.75
2018-12-14T07:46:49.466Z,98507.03
2018-12-14T07:49:16.935Z,98503.94
2018-12-14T07:51:44.379Z,98501.10
2018-12-14T07:54:11.841Z,98502.13
2018-12-14T07:56:39.296Z,98492.66
2018-12-14T07:59:06.862Z,98508.51
2018-12-14T08:01:34.422Z,98515.53
2018-12-14T08:04:01.906Z,98515.99
2018-12-14T08:06:29.344Z,98517.19
2018-12-14T08:08:56.815Z,98519.21
2018-12-14T08:11:24.271Z,98525.14
2018-12-14T08:13:51.747Z,98519.65
2018-12-14T08:16:19.201Z,98527.40
2018-12-14T08:18:46.683Z,98518.45
2018-12-14T08:21:14.133Z,98529.30
2018-12-14T08:23:41.592Z,98532.73
2018-12-14T08:26:09.050Z,98530.48
2018-12-14T08:28:36.485Z,98539.41
2018-12-14T08:31:04.013Z,98543.27
2018-12-14T08:33:31.554Z,98537.61
2018-12-14T08:35:59.011Z,98535.00
2018-12-14T08:38:26.455Z,98540.40
2018-12-14T08:40:53.920Z,98551.13
2018-12-14T08:43:21.356Z,98556.10
2018-12-14T08:45:48.826Z,98557.12
2018-12-14T08:48:16.367Z,98566.17
2018-12-14T08:50:44.330Z,98567.66
2018-12-14T08:53:12.188Z,98565.98
2018-12-14T08:55:39.720Z,98569.54
2018-12-14T08:58:07.215Z,98572.57
2018-12-14T09:00:34.675Z,98576.48
2018-12-14T09:03:02.114Z,98581.30
2018-12-14T09:05:29.579Z,98573.77
2018-12-14T09:07:57.017Z,98572.53
2018-12-14T09:10:24.465Z,98570.36
2018-12-14T09:12:51.934Z,98568.65
2018-12-14T09:15:19.376Z,98573.74
2018-12-14T09:17:46.829Z,98579.00
2018-12-14T09:20:14.281Z,98577.16
2018-12-14T09:22:41.751Z,98578.86
2018-12-14T09:25:09.205Z,98576.05
2018-12-14T09:27:36.680Z,98580.05
2018-12-14T09:30:05.299Z,98582.73
2018-12-14T09:32:32.857Z,98579.69
2018-12-14T09:35:00.482Z,98578.16
2018-12-14T09:37:27.946Z,98582.41
2018-12-14T09:39:55.390Z,98584.70
2018-12-14T09:42:22.933Z,98585.41
2018-12-14T09:44:50.375Z,98588.95
2018-12-14T09:47:17.837Z,98584.88
2018-12-14T09:49:45.273Z,98588.22
2018-12-14T09:52:12.738Z,98583.37
2018-12-14T09:54:40.178Z,98583.08
2018-12-14T09:57:07.636Z,98581.75
2018-12-14T09:59:35.085Z,98576.70
2018-12-14T10:02:02.527Z,98572.62
2018-12-14T10:04:30.105Z,98573.21
2018-12-14T10:06:57.549Z,98585.24
2018-12-14T10:09:25.029Z,98567.31
2018-12-14T10:11:55.280Z,98574.30
2018-12-14T10:14:22.033Z,98569.91
2018-12-14T10:16:49.474Z,98571.19
2018-12-14T10:19:16.924Z,98578.61
2018-12-14T10:21:44.382Z,98571.66
2018-12-14T10:24:11.833Z,98568.58
2018-12-14T10:26:39.274Z,98562.20
2018-12-14T10:29:06.754Z,98551.13
2018-12-14T10:31:34.217Z,98560.20
2018-12-14T10:34:01.682Z,98563.52
2018-12-14T10:36:29.115Z,98550.89
2018-12-14T10:38:56.584Z,98549.38
2018-12-14T10:41:24.035Z,98549.19
2018-12-14T10:43:51.506Z,98561.10
2018-12-14T10:46:18.949Z,98552.75
2018-12-14T10:48:46.396Z,98558.27
2018-12-14T10:51:13.866Z,98549.22
2018-12-14T10:53:41.302Z,98550.83
2018-12-14T10:56:08.856Z,98551.05
2018-12-14T10:58:36.304Z,98554.16
2018-12-14T11:01:09.302Z,98548.58
2018-12-14T11:03:36.750Z,98558.06
2018-12-14T11:06:04.213Z,98559.33
2018-12-14T11:08:32.674Z,98556.35
2018-12-14T11:11:01.058Z,98558.77
2018-12-14T11:13:28.501Z,98553.41
2018-12-14T11:15:55.976Z,98548.88
2018-12-14T11:18:23.422Z,98543.10
2018-12-14T11:20:50.881Z,98544.99
2018-12-14T11:23:18.387Z,98544.09
2018-12-14T11:25:45.844Z,98545.56
2018-12-14T11:28:13.289Z,98545.20
2018-12-14T11:30:40.744Z,98542.28
2018-12-14T11:33:08.201Z,98543.27
2018-12-14T11:35:35.674Z,98548.69
2018-12-14T11:38:03.118Z,98540.03
2018-12-14T11:40:30.553Z,98545.02
2018-12-14T11:42:58.010Z,98545.31
2018-12-14T11:45:25.459Z,98545.56
2018-12-14T11:47:52.939Z,98542.66
2018-12-14T11:50:20.381Z,98538.95
2018-12-14T11:52:47.842Z,98528.47
2018-12-14T11:55:15.278Z,98543.09
2018-12-14T11:57:42.741Z,98541.80
2018-12-14T12:00:10.359Z,98539.99
2018-12-14T12:02:43.057Z,98537.63
2018-12-14T12:05:07.368Z,98531.73
2018-12-14T12:07:34.829Z,98530.59
2018-12-14T12:10:02.273Z,98538.35
2018-12-14T12:12:29.828Z,98532.50
2018-12-14T12:14:57.272Z,98529.70
2018-12-14T12:17:24.725Z,98525.73
2018-12-14T12:19:52.184Z,98533.23
2018-12-14T12:22:19.648Z,98526.59
2018-12-14T12:24:47.109Z,98520.23
2018-12-14T12:27:14.561Z,98521.38
2018-12-14T12:29:42.041Z,98527.04
2018-12-14T12:32:09.533Z,98523.66
2018-12-14T12:34:36.994Z,98518.01
2018-12-14T12:37:04.447Z,98517.86
2018-12-14T12:39:31.910Z,98521.04
2018-12-14T12:41:59.361Z,98526.28
2018-12-14T12:44:33.300Z,98526.44
2018-12-14T12:46:56.281Z,98520.20
2018-12-14T12:49:23.736Z,98522.72
2018-12-14T12:51:51.282Z,98524.34
2018-12-14T12:54:18.741Z,98528.13
2018-12-14T12:56:46.198Z,98526.54
2018-12-14T12:59:13.661Z,98521.97
2018-12-14T13:01:41.105Z,98522.30
2018-12-14T13:04:08.568Z,98523.01
2018-12-14T13:06:36.009Z,98518.05
2018-12-14T13:09:05.323Z,98524.39
2018-12-14T13:11:32.770Z,98519.44
2018-12-14T13:14:00.220Z,98529.95
2018-12-14T13:16:27.674Z,98528.93
2018-12-14T13:18:55.127Z,98531.72
2018-12-14T13:21:22.585Z,98531.09
2018-12-14T13:23:50.026Z,98537.95
2018-12-14T13:26:17.485Z,98537.50
2018-12-14T13:28:44.935Z,98542.59
2018-12-14T13:31:12.398Z,98542.78
2018-12-14T13:33:40.049Z,98534.02
2018-12-14T13:36:07.516Z,98545.48
2018-12-14T13:38:34.976Z,98536.45
2018-12-14T13:41:02.528Z,98539.20
2018-12-14T13:43:29.971Z,98533.88
2018-12-14T13:45:57.436Z,98541.69
2018-12-14T13:48:24.880Z,98535.44
2018-12-14T13:50:52.455Z,98539.37
2018-12-14T13:53:19.893Z,98546.51
2018-12-14T13:55:47.356Z,98555.58
2018-12-14T13:58:14.799Z,98548.69
2018-12-14T14:00:42.627Z,98556.50
2018-12-14T14:03:10.404Z,98553.52
2018-12-14T14:05:37.990Z,98564.59
2018-12-14T14:08:05.455Z,98566.64
2018-12-14T14:10:32.898Z,98572.84
2018-12-14T14:13:00.361Z,98568.78
2018-12-14T14:15:27.891Z,98585.11
2018-12-14T14:17:55.341Z,98589.16
2018-12-14T14:20:22.793Z,98600.19
2018-12-14T14:22:50.249Z,98608.23
2018-12-14T14:25:17.846Z,98609.47
2018-12-14T14:27:45.373Z,98609.77
2018-12-14T14:30:12.818Z,98617.45
2018-12-14T14:32:40.290Z,98622.16
2018-12-14T14:35:07.749Z,98623.42
2018-12-14T14:37:35.217Z,98629.59
2018-12-14T14:40:02.659Z,98627.95
2018-12-14T14:42:30.150Z,98626.83
2018-12-14T14:44:59.917Z,98629.55
2018-12-14T14:47:27.076Z,98634.83
2018-12-14T14:49:54.522Z,98642.70
2018-12-14T14:52:21.962Z,98636.18
2018-12-14T14:54:49.616Z,98645.12
2018-12-14T14:57:17.065Z,98651.23
2018-12-14T14:59:44.534Z,98653.23
2018-12-14T15:02:11.981Z,98650.85
2018-12-14T15:04:39.441Z,98649.67
2018-12-14T15:07:06.886Z,98658.22
2018-12-14T15:09:34.673Z,98660.45
2018-12-14T15:12:02.165Z,98664.05
2018-12-14T15:14:29.657Z,98670.74
2018-12-14T15:16:57.099Z,98666.69
2018-12-14T15:19:24.670Z,98666.13
2018-12-14T15:21:52.225Z,98670.16
2018-12-14T15:24:19.682Z,98675.72
2018-12-14T15:26:47.120Z,98677.16
2018-12-14T15:29:14.574Z,98678.55
2018-12-14T15:31:43.414Z,98687.30
2018-12-14T15:34:14.344Z,98687.71
2018-12-14T15:36:40.348Z,98685.66
2018-12-14T15:39:07.880Z,98686.91
2018-12-14T15:41:35.351Z,98689.14
2018-12-14T15:44:02.801Z,98689.33
2018-12-14T15:46:31.179Z,98691.00
2018-12-14T15:48:58.617Z,98693.45
2018-12-14T15:51:26.082Z,98695.03
2018-12-14T15:53:53.525Z,98698.92
2018-12-14T15:56:21.028Z,98693.80
2018-12-14T15:58:48.485Z,98699.33
2018-12-14T16:01:15.945Z,98703.53
2018-12-14T16:03:43.398Z,98707.12
2018-12-14T16:06:10.859Z,98707.00
2018-12-14T16:08:38.298Z,98704.98
2018-12-14T16:11:05.755Z,98715.08
2018-12-14T16:13:33.194Z,98717.23
2018-12-14T16:16:00.652Z,98721.27
2018-12-14T16:18:28.140Z,98726.70
2018-12-14T16:20:55.683Z,98724.31
2018-12-14T16:23:23.155Z,98725.75
2018-12-14T16:25:50.611Z,98727.88
2018-12-14T16:28:18.360Z,98733.95
2018-12-14T16:30:45.796Z,98731.34
2018-12-14T16:33:13.254Z,98728.91
2018-12-14T16:35:40.897Z,98734.81
2018-12-14T16:38:08.365Z,98729.47
2018-12-14T16:40:35.818Z,98738.12
2018-12-14T16:43:03.277Z,98741.36
2018-12-14T16:45:30.837Z,98735.97
2018-12-14T16:47:58.293Z,98740.75
2018-12-14T16:50:25.733Z,98750.64
2018-12-14T16:52:53.438Z,98744.44
2018-12-14T16:55:20.882Z,98748.03
2018-12-14T16:57:49.741Z,98745.16
2018-12-14T17:00:17.483Z,98744.88
2018-12-14T17:02:44.941Z,98748.28
2018-12-14T17:05:12.393Z,98754.86
2018-12-14T17:07:40.302Z,98751.28
2018-12-14T17:10:07.896Z,98754.58
2018-12-14T17:12:35.355Z,98755.51
2018-12-14T17:15:02.803Z,98757.53
2018-12-14T17:17:30.266Z,98755.04
2018-12-14T17:19:57.736Z,98763.28
2018-12-14T17:22:25.194Z,98760.91
2018-12-14T17:24:52.669Z,98761.08
2018-12-14T17:27:20.131Z,98758.56
2018-12-14T17:29:47.600Z,98763.50
2018-12-14T17:32:15.118Z,98757.63
2018-12-14T17:34:42.923Z,98768.81
2018-12-14T17:37:10.369Z,98768.42
2018-12-14T17:39:37.829Z,98766.52
2018-12-14T17:42:05.353Z,98767.16
2018-12-14T17:44:32.825Z,98763.86
2018-12-14T17:47:00.358Z,98770.70
2018-12-14T17:49:27.833Z,98766.66
2018-12-14T17:51:55.278Z,98768.67
2018-12-14T17:54:22.771Z,98769.62
2018-12-14T17:56:50.213Z,98779.03
2018-12-14T17:59:17.670Z,98776.77
2018-12-14T18:01:46.293Z,98781.53
2018-12-14T18:04:13.753Z,98778.16
2018-12-14T18:06:41.277Z,98779.52
2018-12-14T18:09:08.807Z,98785.59
2018-12-14T18:11:36.275Z,98788.87
2018-12-14T18:14:03.740Z,98781.43
2018-12-14T18:16:31.489Z,98786.80
2018-12-14T18:18:59.055Z,98789.87
2018-12-14T18:21:26.517Z,98789.72
2018-12-14T18:23:53.974Z,98797.31
2018-12-14T18:26:21.435Z,98799.06
2018-12-14T18:28:48.884Z,98799.29
2018-12-14T18:31:16.340Z,98803.72
2018-12-14T18:33:43.793Z,98800.42
2018-12-14T18:36:11.250Z,98807.98
2018-12-14T18:38:38.685Z,98817.59
2018-12-14T18:41:06.166Z,98812.36
2018-12-14T18:43:33.610Z,98815.26
2018-12-14T18:46:01.089Z,98813.76
2018-12-14T18:48:28.533Z,98825.37
2018-12-14T18:50:55.978Z,98828.10
2018-12-14T18:53:23.437Z,98820.23
2018-12-14T18:55:51.836Z,98828.58
2018-12-14T18:58:19.293Z,98826.87
2018-12-14T19:00:46.730Z,98827.80
2018-12-14T19:03:14.189Z,98834.84
2018-12-14T19:05:41.643Z,98833.70
2018-12-14T19:08:09.093Z,98833.16
2018-12-14T19:10:36.529Z,98832.22
2018-12-14T19:13:03.997Z,98826.33
2018-12-14T19:15:31.441Z,98831.38
2018-12-14T19:17:59.114Z,98831.84
2018-12-14T19:20:26.568Z,98832.23
2018-12-14T19:22:54.734Z,98834.97
2018-12-14T19:25:22.189Z,98837.38
2018-12-14T19:27:49.652Z,98835.72
2018-12-14T19:30:17.097Z,98836.97
2018-12-14T19:32:44.638Z,98841.67
2018-12-14T19:35:12.093Z,98839.75
2018-12-14T19:37:39.560Z,98835.95
2018-12-14T19:40:09.183Z,98837.30
2018-12-14T19:42:36.639Z,98836.55
2018-12-14T19:45:05.147Z,98838.00
2018-12-14T19:47:32.642Z,98834.83
2018-12-14T19:50:00.102Z,98835.77
2018-12-14T19:52:27.547Z,98840.83
2018-12-14T19:54:56.106Z,98851.88
2018-12-14T19:57:23.546Z,98852.45
2018-12-14T19:59:51.025Z,98852.97
2018-12-14T20:02:18.477Z,98856.21
2018-12-14T20:04:45.952Z,98858.86
2018-12-14T20:07:13.400Z,98857.00
2018-12-14T20:09:40.868Z,98858.29
2018-12-14T20:12:08.377Z,98860.20
2018-12-14T20:14:35.833Z,98869.52
2018-12-14T20:17:03.272Z,98865.02
2018-12-14T20:19:30.732Z,98868.94
2018-12-14T20:21:58.190Z,98872.77
2018-12-14T20:24:25.654Z,98874.85
2018-12-14T20:26:53.108Z,98874.92
2018-12-14T20:29:20.551Z,98874.36
2018-12-14T20:31:47.997Z,98877.03
2018-12-14T20:34:15.441Z,98883.12
2018-12-14T20:36:42.893Z,98881.34
2018-12-14T20:39:10.335Z,98879.72
2018-12-14T20:41:37.813Z,98887.36
2018-12-14T20:44:05.265Z,98883.30
2018-12-14T20:46:32.717Z,98884.12
2018-12-14T20:49:00.183Z,98879.76
2018-12-14T20:51:27.626Z,98879.50
2018-12-14T20:53:55.084Z,98882.81
2018-12-14T20:56:22.531Z,98875.88
2018-12-14T20:58:50.009Z,98882.21
2018-12-14T21:01:17.470Z,98876.79
2018-12-14T21:03:44.931Z,98885.81
2018-12-14T21:06:12.382Z,98886.64
2018-12-14T21:08:39.839Z,98886.16
2018-12-14T21:11:07.283Z,98887.66
2018-12-14T21:13:34.743Z,98889.05
2018-12-14T21:16:02.190Z,98887.87
2018-12-14T21:18:29.650Z,98891.70
2018-12-14T21:20:57.087Z,98888.70
2018-12-14T21:23:24.541Z,98884.52
2018-12-14T21:25:51.998Z,98892.31
2018-12-14T21:28:19.466Z,98895.42
2018-12-14T21:30:46.909Z,98898.69
2018-12-14T21:33:14.378Z,98899.80
2018-12-14T21:35:41.822Z,98905.65
2018-12-14T21:38:09.273Z,98903.07
2018-12-14T21:40:36.834Z,98906.30
2018-12-14T21:43:04.278Z,98914.00
2018-12-14T21:45:31.733Z,98913.05
2018-12-14T21:47:59.177Z,98920.03
2018-12-14T21:50:26.640Z,98928.23
2018-12-14T21:52:54.092Z,98918.52
2018-12-14T21:55:21.550Z,98920.70
2018-12-14T21:57:49.076Z,98929.84
2018-12-14T22:00:16.569Z,98929.13
2018-12-14T22:02:44.016Z,98923.63
2018-12-14T22:05:11.478Z,98920.61
2018-12-14T22:07:38.930Z,98923.08
2018-12-14T22:10:07.653Z,98920.33
2018-12-14T22:12:35.101Z,98926.98
2018-12-14T22:15:02.564Z,98928.47
2018-12-14T22:17:30.001Z,98926.02
2018-12-14T22:19:57.453Z,98928.72
2018-12-14T22:22:24.913Z,98926.44
2018-12-14T22:24:52.374Z,98918.22
2018-12-14T22:27:19.816Z,98919.61
2018-12-14T22:29:47.257Z,98917.50
2018-12-14T22:32:14.714Z,98917.38
2018-12-14T22:34:42.167Z,98913.64
2018-12-14T22:37:09.745Z,98913.20
2018-12-14T22:39:37.674Z,98915.06
2018-12-14T22:42:05.148Z,98914.30
2018-12-14T22:44:32.603Z,98912.53
2018-12-14T22:47:00.078Z,98913.83
2018-12-14T22:49:27.526Z,98917.31
2018-12-14T22:51:54.981Z,98922.99
2018-12-14T22:54:22.440Z,98914.11
2018-12-14T22:56:49.905Z,98924.97
2018-12-14T22:59:17.360Z,98920.19
2018-12-14T23:01:44.834Z,98912.00
2018-12-14T23:04:12.291Z,98912.34
2018-12-14T23:06:39.757Z,98903.53
2018-12-14T23:09:07.215Z,98909.88
2018-12-14T23:11:35.546Z,98902.27
2018-12-14T23:14:03.076Z,98904.33
2018-12-14T23:16:30.640Z,98881.28
2018-12-14T23:18:58.082Z,98907.27
2018-12-14T23:21:25.525Z,98902.34
2018-12-14T23:23:53.069Z,98897.80
2018-12-14T23:26:20.512Z,98902.98
2018-12-14T23:28:47.965Z,98901.73
2018-12-14T23:31:15.404Z,98903.15
2018-12-14T23:33:42.868Z,98899.64
2018-12-14T23:36:10.305Z,98904.39
2018-12-14T23:38:37.778Z,98905.31
2018-12-14T23:41:05.233Z,98910.36
2018-12-14T23:43:32.702Z,98908.97
2018-12-14T23:46:00.144Z,98911.68
2018-12-14T23:48:27.608Z,98907.45
2018-12-14T23:50:55.063Z,98912.13
2018-12-14T23:53:22.605Z,98911.70
2018-12-14T23:55:50.051Z,98904.91
2018-12-14T23:58:17.508Z,98904.00
